Time;durP1;ratioP1;P1;durP2;ratioP2;P2;SDS_P1;SDS_P2;PMS_P1;PMS_P2;Temp;Humidity;BMP_temperature;BMP_pressure;BME280_temperature;BME280_humidity;BME280_pressure;Samples;Min_cycle;Max_cycle;Signal;HPM_P1;HPM_P2
2022/01/29 00:02:07;;;;;;;12.00;7.37;;;6.20;99.90;;;;;;5054589;28;20210;-57
2022/01/29 00:04:35;;;;;;;8.97;6.27;;;6.10;99.90;;;;;;5054603;28;20673;-56
2022/01/29 00:07:02;;;;;;;8.13;5.90;;;6.10;99.90;;;;;;5054707;28;20210;-56
2022/01/29 00:09:30;;;;;;;7.67;6.00;;;6.10;99.90;;;;;;5054681;28;20205;-56
2022/01/29 00:11:56;;;;;;;11.13;6.13;;;6.00;99.90;;;;;;5053059;28;20245;-56
2022/01/29 00:14:23;;;;;;;7.60;5.43;;;6.00;99.90;;;;;;5053226;28;20259;-55
2022/01/29 00:16:50;;;;;;;11.23;5.87;;;5.90;99.90;;;;;;5053502;28;20209;-56
2022/01/29 00:19:16;;;;;;;9.77;5.90;;;5.90;99.90;;;;;;5053253;28;20248;-56
2022/01/29 00:21:43;;;;;;;9.30;5.40;;;5.80;99.90;;;;;;5052903;28;20230;-56
2022/01/29 00:24:10;;;;;;;10.47;6.33;;;5.80;99.90;;;;;;5052988;28;20209;-56
2022/01/29 00:26:38;;;;;;;8.07;5.67;;;5.80;99.90;;;;;;5053084;28;20217;-56
2022/01/29 00:29:14;;;;;;;6.10;5.00;;;5.80;99.90;;;;;;5052653;28;20208;-56
2022/01/29 00:31:41;;;;;;;8.03;5.27;;;5.80;99.90;;;;;;5052984;28;20232;-56
2022/01/29 00:34:08;;;;;;;9.07;5.40;;;5.80;99.90;;;;;;5053070;28;20681;-56
2022/01/29 00:36:34;;;;;;;7.13;5.13;;;5.70;99.90;;;;;;5053037;28;20217;-56
2022/01/29 00:39:01;;;;;;;7.83;5.20;;;5.70;99.90;;;;;;5052710;28;20221;-56
2022/01/29 00:41:28;;;;;;;9.60;5.57;;;5.70;99.90;;;;;;5052671;28;20226;-56
2022/01/29 00:43:56;;;;;;;7.93;5.03;;;5.80;99.90;;;;;;5052930;28;20548;-56
2022/01/29 00:46:22;;;;;;;8.03;5.40;;;5.90;99.90;;;;;;5052914;28;20213;-55
2022/01/29 00:48:49;;;;;;;8.03;5.17;;;5.90;99.90;;;;;;5052886;28;20210;-56
2022/01/29 00:51:16;;;;;;;8.23;5.17;;;5.90;99.90;;;;;;5052611;28;20233;-56
2022/01/29 00:53:43;;;;;;;8.53;5.93;;;5.80;99.90;;;;;;5052678;28;20209;-56
2022/01/29 00:56:10;;;;;;;6.13;5.03;;;5.90;99.90;;;;;;5052381;28;20213;-56
2022/01/29 00:58:37;;;;;;;10.80;5.43;;;5.90;99.90;;;;;;5052593;28;20229;-56
2022/01/29 01:01:05;;;;;;;8.50;5.90;;;5.80;99.90;;;;;;5051689;28;20230;-56
2022/01/29 01:03:32;;;;;;;8.80;6.03;;;5.80;99.90;;;;;;5052752;28;20213;-56
2022/01/29 01:05:58;;;;;;;9.20;5.73;;;5.70;99.90;;;;;;5052591;28;20233;-55
2022/01/29 01:08:25;;;;;;;8.07;6.10;;;5.70;99.90;;;;;;5052563;28;20205;-56
2022/01/29 01:10:52;;;;;;;7.50;6.03;;;5.70;99.90;;;;;;5016422;28;1035971;-56
2022/01/29 01:13:18;;;;;;;9.50;6.07;;;5.80;99.90;;;;;;5053354;28;20444;-57
2022/01/29 01:15:45;;;;;;;10.43;6.13;;;5.80;99.90;;;;;;5053261;28;20205;-56
2022/01/29 01:18:14;;;;;;;9.57;5.90;;;5.80;99.90;;;;;;5053379;28;20225;-56
2022/01/29 01:20:41;;;;;;;11.20;6.80;;;6.00;99.90;;;;;;5052965;28;20279;-55
2022/01/29 01:23:07;;;;;;;11.07;7.03;;;6.00;99.90;;;;;;5052910;28;20209;-55
2022/01/29 01:25:34;;;;;;;7.67;6.10;;;6.00;99.90;;;;;;5053336;28;20633;-56
2022/01/29 01:28:01;;;;;;;10.57;6.37;;;6.00;99.90;;;;;;5053083;28;20219;-56
2022/01/29 01:30:27;;;;;;;9.67;6.53;;;6.10;99.90;;;;;;5052808;28;20226;-56
2022/01/29 01:32:54;;;;;;;9.97;6.60;;;6.20;99.90;;;;;;5052661;28;20751;-56
2022/01/29 01:35:27;;;;;;;7.70;5.97;;;6.20;99.90;;;;;;5052929;28;20231;-55
2022/01/29 01:37:58;;;;;;;9.97;6.00;;;6.20;99.90;;;;;;5052785;28;20213;-56
2022/01/29 01:40:26;;;;;;;8.57;5.87;;;5.90;99.90;;;;;;5052932;28;20225;-56
2022/01/29 01:42:58;;;;;;;9.43;6.30;;;5.70;99.90;;;;;;5052927;28;20213;-54
2022/01/29 01:45:25;;;;;;;9.20;6.13;;;5.30;99.90;;;;;;5053372;28;20209;-56
2022/01/29 01:47:52;;;;;;;8.87;6.40;;;5.10;99.90;;;;;;5053537;28;20201;-55
2022/01/29 01:50:20;;;;;;;10.73;6.90;;;5.00;99.90;;;;;;5052703;28;20229;-56
2022/01/29 01:52:48;;;;;;;9.50;6.50;;;4.80;99.90;;;;;;5052700;28;20280;-56
2022/01/29 01:55:15;;;;;;;9.07;6.17;;;4.80;99.90;;;;;;5052566;28;20722;-56
2022/01/29 01:57:42;;;;;;;9.77;6.87;;;4.80;99.90;;;;;;5052345;28;20573;-53
2022/01/29 02:00:11;;;;;;;9.57;7.30;;;4.60;99.90;;;;;;5052226;28;20225;-56
2022/01/29 02:02:37;;;;;;;10.13;6.47;;;4.60;99.90;;;;;;5052705;28;20255;-56
2022/01/29 02:05:05;;;;;;;11.07;6.73;;;4.60;99.90;;;;;;5053325;28;20237;-56
2022/01/29 02:07:31;;;;;;;9.90;6.77;;;4.80;99.90;;;;;;5053779;28;20214;-57
2022/01/29 02:09:59;;;;;;;9.83;6.83;;;5.00;99.90;;;;;;5052410;28;20197;-56
2022/01/29 02:12:30;;;;;;;10.83;6.87;;;5.10;99.90;;;;;;5052448;28;20300;-56
2022/01/29 02:15:01;;;;;;;13.13;9.47;;;5.30;99.90;;;;;;5052754;28;20232;-56
2022/01/29 02:17:27;;;;;;;8.40;6.70;;;5.20;99.90;;;;;;5052285;28;20201;-56
2022/01/29 02:19:54;;;;;;;10.43;6.80;;;5.30;99.90;;;;;;5052181;28;20229;-56
2022/01/29 02:22:22;;;;;;;8.50;6.80;;;5.30;99.90;;;;;;5051994;28;20259;-56
2022/01/29 02:24:49;;;;;;;10.10;6.70;;;5.40;99.90;;;;;;5052184;28;20213;-56
2022/01/29 02:27:15;;;;;;;10.27;6.53;;;5.40;99.90;;;;;;5052119;28;20247;-56
2022/01/29 02:29:44;;;;;;;11.90;7.10;;;5.50;99.90;;;;;;5052699;28;20209;-57
2022/01/29 02:32:10;;;;;;;9.47;7.30;;;5.50;99.90;;;;;;5052124;28;20663;-55
2022/01/29 02:34:37;;;;;;;12.07;7.27;;;5.60;99.90;;;;;;5052325;28;20208;-56
2022/01/29 02:37:04;;;;;;;11.57;7.30;;;5.60;99.90;;;;;;5052065;28;20300;-56
2022/01/29 02:39:32;;;;;;;11.00;7.30;;;5.60;99.90;;;;;;5052097;28;20222;-56
2022/01/29 02:41:59;;;;;;;9.40;6.90;;;5.50;99.90;;;;;;5051501;28;20221;-55
2022/01/29 02:44:26;;;;;;;12.60;7.60;;;5.50;99.90;;;;;;5051670;28;20201;-56
2022/01/29 02:46:54;;;;;;;9.93;7.63;;;5.50;99.90;;;;;;5052035;28;20205;-55
2022/01/29 02:49:23;;;;;;;10.97;7.33;;;5.60;99.90;;;;;;5051980;28;20292;-55
2022/01/29 02:51:52;;;;;;;11.43;8.30;;;5.60;99.90;;;;;;5051362;28;20226;-55
2022/01/29 02:54:20;;;;;;;10.90;7.47;;;5.60;99.90;;;;;;5051710;28;20255;-55
2022/01/29 02:56:48;;;;;;;11.00;7.27;;;5.60;99.90;;;;;;5051649;28;20201;-56
2022/01/29 02:59:15;;;;;;;11.73;8.30;;;5.60;99.90;;;;;;5051452;28;20704;-55
2022/01/29 03:01:43;;;;;;;10.27;7.87;;;5.60;99.90;;;;;;5051639;28;20225;-56
2022/01/29 03:04:10;;;;;;;12.10;8.33;;;5.60;99.90;;;;;;5051802;28;20228;-56
2022/01/29 03:06:37;;;;;;;12.40;8.90;;;5.60;99.90;;;;;;5051957;28;20210;-56
2022/01/29 03:09:05;;;;;;;13.90;8.97;;;5.70;99.90;;;;;;5051594;28;20693;-56
2022/01/29 03:11:32;;;;;;;11.33;8.93;;;5.70;99.90;;;;;;5051464;28;20713;-55
2022/01/29 03:14:00;;;;;;;13.23;9.17;;;5.60;99.90;;;;;;5051731;28;20205;-56
2022/01/29 03:16:27;;;;;;;14.80;9.97;;;5.60;99.90;;;;;;5051893;28;20206;-56
2022/01/29 03:18:54;;;;;;;11.73;9.20;;;5.70;99.90;;;;;;5051669;28;20217;-56
2022/01/29 03:21:20;;;;;;;12.30;8.97;;;5.70;99.90;;;;;;5051395;28;20225;-56
2022/01/29 03:23:47;;;;;;;12.13;8.40;;;5.70;99.90;;;;;;5051336;28;20252;-56
2022/01/29 03:26:14;;;;;;;8.90;7.47;;;5.70;99.90;;;;;;5054814;28;20210;-55
2022/01/29 03:28:41;;;;;;;13.53;8.90;;;5.70;99.90;;;;;;5055395;28;20209;-57
2022/01/29 03:31:09;;;;;;;14.67;9.07;;;5.70;99.90;;;;;;5055146;28;20303;-57
2022/01/29 03:33:36;;;;;;;12.70;9.10;;;5.70;99.90;;;;;;5055049;28;20267;-57
2022/01/29 03:36:03;;;;;;;14.47;9.17;;;5.70;99.90;;;;;;5055100;28;20260;-56
2022/01/29 03:38:30;;;;;;;14.30;9.07;;;5.70;99.90;;;;;;5054840;28;20697;-57
2022/01/29 03:40:58;;;;;;;14.07;9.17;;;5.70;99.90;;;;;;5055089;28;20229;-56
2022/01/29 03:43:29;;;;;;;13.00;8.87;;;5.80;99.90;;;;;;5055010;28;20286;-56
2022/01/29 03:45:56;;;;;;;13.10;9.03;;;5.90;99.90;;;;;;5055253;28;20305;-56
2022/01/29 03:48:24;;;;;;;13.53;8.87;;;5.90;99.90;;;;;;5055064;28;20213;-56
2022/01/29 03:50:51;;;;;;;13.77;9.17;;;5.80;99.90;;;;;;5054852;28;20229;-56
2022/01/29 03:53:18;;;;;;;14.90;10.03;;;5.80;99.90;;;;;;5054430;28;20202;-56
2022/01/29 03:55:45;;;;;;;13.93;8.63;;;5.70;99.90;;;;;;5054871;28;20213;-56
2022/01/29 03:58:12;;;;;;;15.67;9.43;;;5.50;99.90;;;;;;5054891;28;20263;-57
2022/01/29 04:00:38;;;;;;;14.87;9.40;;;5.50;99.90;;;;;;5054596;28;20240;-56
2022/01/29 04:03:05;;;;;;;12.50;8.83;;;5.40;99.90;;;;;;5054300;28;20209;-56
2022/01/29 04:05:33;;;;;;;13.87;9.27;;;5.40;99.90;;;;;;5054496;28;20213;-57
2022/01/29 04:08:00;;;;;;;13.40;9.23;;;5.40;99.90;;;;;;5054265;28;20210;-56
2022/01/29 04:10:28;;;;;;;12.67;9.50;;;5.10;99.90;;;;;;5054225;28;20230;-56
2022/01/29 04:12:56;;;;;;;14.50;9.37;;;5.00;99.90;;;;;;5054120;28;20575;-56
2022/01/29 04:15:22;;;;;;;14.83;9.83;;;5.10;99.90;;;;;;5054421;28;20271;-56
2022/01/29 04:17:49;;;;;;;15.60;10.57;;;5.10;99.90;;;;;;5054460;28;20209;-57
2022/01/29 04:20:16;;;;;;;14.60;9.23;;;5.20;99.90;;;;;;5053964;28;20229;-56
2022/01/29 04:22:44;;;;;;;14.20;9.67;;;5.30;99.90;;;;;;5054167;28;20201;-56
2022/01/29 04:25:10;;;;;;;14.50;10.03;;;5.50;99.90;;;;;;5054278;28;20210;-56
2022/01/29 04:27:40;;;;;;;12.57;9.13;;;5.40;99.90;;;;;;5054056;28;20686;-56
2022/01/29 04:30:12;;;;;;;14.47;9.83;;;5.30;99.90;;;;;;5054174;28;20226;-56
2022/01/29 04:32:58;;;;;;;14.23;9.50;;;5.00;99.90;;;;;;5053660;28;20216;-56
2022/01/29 04:35:25;;;;;;;12.23;9.47;;;5.00;99.90;;;;;;5053764;28;20213;-57
2022/01/29 04:37:53;;;;;;;14.70;9.60;;;5.10;99.90;;;;;;5053277;28;20213;-55
2022/01/29 04:40:20;;;;;;;13.40;9.33;;;5.30;99.90;;;;;;5054044;28;20238;-56
2022/01/29 04:42:47;;;;;;;13.87;10.40;;;5.40;99.90;;;;;;5053464;28;20727;-57
2022/01/29 04:45:14;;;;;;;11.80;8.57;;;5.50;99.90;;;;;;5053716;28;20578;-57
2022/01/29 04:47:41;;;;;;;14.50;9.70;;;5.60;99.90;;;;;;5054092;28;20554;-57
2022/01/29 04:50:08;;;;;;;15.97;10.07;;;5.70;99.90;;;;;;5053844;28;20228;-57
2022/01/29 04:52:35;;;;;;;12.70;8.93;;;5.70;99.90;;;;;;5053496;28;20209;-57
2022/01/29 04:55:04;;;;;;;14.87;10.80;;;5.60;99.90;;;;;;5053566;28;20205;-57
2022/01/29 04:57:30;;;;;;;13.27;8.73;;;5.20;99.90;;;;;;5053444;28;20209;-56
2022/01/29 04:59:59;;;;;;;13.00;9.20;;;5.10;99.90;;;;;;5053394;28;20225;-56
2022/01/29 05:02:25;;;;;;;15.50;10.67;;;4.90;99.90;;;;;;5053499;28;20213;-56
2022/01/29 05:04:52;;;;;;;13.50;9.93;;;4.90;99.90;;;;;;5053650;28;20232;-56
2022/01/29 05:07:19;;;;;;;11.63;9.03;;;5.10;99.90;;;;;;5053351;28;20589;-56
2022/01/29 05:09:45;;;;;;;13.17;8.97;;;5.20;99.90;;;;;;5053472;28;20628;-56
2022/01/29 05:12:19;;;;;;;14.63;9.70;;;5.10;99.90;;;;;;5067729;22;20497;-55
2022/01/29 05:15:02;;;;;;;17.23;9.57;;;4.80;99.90;;;;;;5051387;28;20209;-55
2022/01/29 05:28:27;;;;;;;14.23;9.53;;;5.40;99.90;;;;;;5053060;28;20579;-56
2022/01/29 05:30:54;;;;;;;15.33;9.90;;;5.50;99.90;;;;;;5052714;28;20221;-56
2022/01/29 05:33:20;;;;;;;13.57;10.13;;;5.60;99.90;;;;;;5052391;28;20221;-55
2022/01/29 05:35:47;;;;;;;18.33;12.23;;;5.70;99.90;;;;;;5052825;28;20201;-56
2022/01/29 05:38:14;;;;;;;15.67;9.97;;;5.70;99.90;;;;;;5053033;28;20213;-57
2022/01/29 05:40:40;;;;;;;14.63;10.77;;;5.80;99.90;;;;;;5052621;28;20225;-55
2022/01/29 05:43:07;;;;;;;17.23;11.03;;;5.70;99.90;;;;;;5052480;28;20251;-55
2022/01/29 05:45:35;;;;;;;16.03;12.03;;;5.60;99.90;;;;;;5052381;28;20259;-56
2022/01/29 05:48:02;;;;;;;15.30;11.77;;;5.50;99.90;;;;;;5052116;28;20260;-56
2022/01/29 05:50:28;;;;;;;20.97;13.37;;;5.40;99.90;;;;;;5052460;28;20217;-55
2022/01/29 05:52:55;;;;;;;18.67;12.77;;;5.50;99.90;;;;;;5052374;28;20606;-55
2022/01/29 05:55:22;;;;;;;18.53;12.70;;;5.60;99.90;;;;;;5052781;28;20209;-56
2022/01/29 05:57:49;;;;;;;16.93;13.27;;;5.60;99.90;;;;;;5052343;28;20214;-55
2022/01/29 06:00:17;;;;;;;17.60;12.47;;;5.40;99.90;;;;;;5052646;28;20225;-56
2022/01/29 06:02:45;;;;;;;18.50;13.80;;;5.30;99.90;;;;;;5052172;28;20205;-55
2022/01/29 06:05:12;;;;;;;16.67;12.50;;;5.20;99.90;;;;;;5052488;28;20209;-55
2022/01/29 06:07:38;;;;;;;16.60;12.03;;;5.20;99.90;;;;;;5052185;28;20565;-55
2022/01/29 06:10:05;;;;;;;16.30;13.00;;;5.30;99.90;;;;;;5052098;28;20213;-55
2022/01/29 06:12:32;;;;;;;16.97;12.03;;;5.40;99.90;;;;;;5052171;28;20216;-55
2022/01/29 06:14:59;;;;;;;17.77;12.37;;;5.30;99.90;;;;;;5052024;28;20205;-56
2022/01/29 06:17:25;;;;;;;16.37;12.83;;;5.30;99.90;;;;;;5052377;28;20201;-56
2022/01/29 06:19:54;;;;;;;18.13;12.27;;;5.40;99.90;;;;;;5052285;28;20221;-57
2022/01/29 06:22:20;;;;;;;18.03;12.57;;;5.40;99.90;;;;;;5051814;28;20229;-55
2022/01/29 06:24:47;;;;;;;15.33;11.67;;;5.40;99.90;;;;;;5052117;28;20213;-55
2022/01/29 06:27:14;;;;;;;14.27;10.97;;;5.40;99.90;;;;;;5051901;28;20216;-55
2022/01/29 06:29:40;;;;;;;17.40;11.90;;;5.30;99.90;;;;;;5051915;28;20212;-56
2022/01/29 06:32:08;;;;;;;14.73;11.07;;;5.30;99.90;;;;;;5051742;28;20279;-55
2022/01/29 06:34:34;;;;;;;16.43;12.23;;;5.20;99.90;;;;;;5051701;28;20575;-57
2022/01/29 06:37:03;;;;;;;15.80;12.10;;;5.30;99.90;;;;;;5052122;28;20209;-56
2022/01/29 06:39:29;;;;;;;16.50;12.10;;;5.20;99.90;;;;;;5051767;28;20255;-55
2022/01/29 06:41:56;;;;;;;15.80;11.60;;;5.30;99.90;;;;;;5051822;28;20650;-55
2022/01/29 06:44:23;;;;;;;15.70;11.53;;;5.30;99.90;;;;;;5052064;28;20209;-57
2022/01/29 06:46:49;;;;;;;17.50;12.50;;;5.30;99.90;;;;;;5052238;28;20214;-55
2022/01/29 06:49:16;;;;;;;19.27;13.60;;;5.30;99.90;;;;;;5052319;28;20251;-55
2022/01/29 06:51:43;;;;;;;17.80;11.47;;;5.40;99.90;;;;;;5052134;28;20428;-55
2022/01/29 06:54:11;;;;;;;17.30;12.03;;;5.40;99.90;;;;;;5051647;28;20236;-56
2022/01/29 06:56:37;;;;;;;15.87;12.07;;;5.40;99.90;;;;;;5052056;28;20607;-57
2022/01/29 06:59:04;;;;;;;16.67;11.73;;;5.50;99.90;;;;;;5051662;28;20735;-55
2022/01/29 07:01:31;;;;;;;14.67;11.60;;;5.50;99.90;;;;;;5055476;28;20722;-55
2022/01/29 07:03:58;;;;;;;16.77;11.87;;;5.50;99.90;;;;;;5055682;28;20201;-56
2022/01/29 07:06:24;;;;;;;17.77;13.20;;;5.50;99.90;;;;;;5055510;28;20216;-55
2022/01/29 07:08:51;;;;;;;20.17;12.40;;;5.50;99.90;;;;;;5055556;28;20453;-55
2022/01/29 07:11:22;;;;;;;16.93;12.10;;;5.50;99.90;;;;;;5055610;28;20229;-55
2022/01/29 07:13:49;;;;;;;18.87;12.77;;;5.40;99.90;;;;;;5055079;28;20626;-55
2022/01/29 07:16:16;;;;;;;16.13;11.00;;;5.30;99.90;;;;;;5055458;28;20252;-57
2022/01/29 07:18:43;;;;;;;16.30;11.57;;;5.40;99.90;;;;;;5055509;28;20738;-55
2022/01/29 07:21:09;;;;;;;16.67;12.57;;;5.40;99.90;;;;;;5055146;28;20771;-55
2022/01/29 07:23:36;;;;;;;18.73;12.67;;;5.60;99.90;;;;;;5055190;28;20579;-55
2022/01/29 07:26:02;;;;;;;16.17;11.37;;;5.70;99.90;;;;;;5055683;28;20214;-55
2022/01/29 07:28:32;;;;;;;16.73;11.50;;;5.80;99.90;;;;;;5055850;28;20209;-55
2022/01/29 07:30:59;;;;;;;15.50;10.97;;;5.90;99.90;;;;;;5055441;28;20272;-57
2022/01/29 07:33:25;;;;;;;16.83;12.20;;;5.90;99.90;;;;;;5055059;28;20205;-58
2022/01/29 07:35:52;;;;;;;16.50;11.43;;;6.00;99.90;;;;;;5055162;28;20634;-57
2022/01/29 07:38:19;;;;;;;16.77;12.00;;;6.10;99.90;;;;;;5055222;28;20655;-57
2022/01/29 07:40:46;;;;;;;16.47;11.57;;;6.10;99.90;;;;;;5055088;28;20233;-57
2022/01/29 07:43:13;;;;;;;17.57;11.77;;;6.20;99.90;;;;;;5054921;28;20251;-57
2022/01/29 07:45:41;;;;;;;14.13;10.73;;;6.30;99.90;;;;;;5054925;28;20263;-57
2022/01/29 07:48:07;;;;;;;12.67;10.40;;;6.30;99.90;;;;;;5054813;28;20559;-58
2022/01/29 07:50:34;;;;;;;13.40;10.30;;;6.30;99.90;;;;;;5054712;28;20226;-58
2022/01/29 07:53:01;;;;;;;14.53;10.27;;;6.20;99.90;;;;;;5054319;28;20640;-58
2022/01/29 07:55:29;;;;;;;14.57;10.80;;;6.20;99.90;;;;;;5054809;28;20252;-57
2022/01/29 07:57:56;;;;;;;17.13;11.90;;;6.20;99.90;;;;;;5054834;28;20213;-57
2022/01/29 08:00:23;;;;;;;26.60;17.90;;;6.50;99.90;;;;;;5054562;28;20275;-58
2022/01/29 08:02:51;;;;;;;15.03;11.13;;;6.80;99.90;;;;;;5054028;28;20209;-57
2022/01/29 08:05:18;;;;;;;13.53;10.30;;;7.00;99.90;;;;;;5054264;28;20212;-58
2022/01/29 08:07:45;;;;;;;15.43;9.50;;;7.10;99.90;;;;;;5054563;28;20205;-58
2022/01/29 08:10:12;;;;;;;14.57;10.17;;;7.10;99.90;;;;;;5054132;28;20205;-57
2022/01/29 08:12:39;;;;;;;11.50;9.13;;;7.10;99.90;;;;;;5054278;28;20209;-57
2022/01/29 08:15:07;;;;;;;11.83;8.83;;;7.00;99.90;;;;;;5054298;28;20255;-57
2022/01/29 08:17:34;;;;;;;12.00;8.50;;;7.00;99.90;;;;;;5054372;28;20576;-56
2022/01/29 08:20:03;;;;;;;12.00;9.10;;;6.90;99.90;;;;;;5053886;28;20206;-56
2022/01/29 08:22:30;;;;;;;11.47;8.57;;;6.90;99.90;;;;;;5054193;28;20212;-56
2022/01/29 08:24:57;;;;;;;10.43;7.97;;;6.90;99.90;;;;;;5054273;28;20602;-55
2022/01/29 08:27:24;;;;;;;9.20;6.40;;;6.90;99.90;;;;;;5054020;28;20255;-57
2022/01/29 08:29:51;;;;;;;9.90;6.50;;;6.90;99.90;;;;;;5054062;28;20205;-55
2022/01/29 08:32:18;;;;;;;7.87;6.13;;;6.90;99.90;;;;;;5054199;28;20266;-56
2022/01/29 08:34:46;;;;;;;8.50;5.63;;;7.00;99.90;;;;;;5054024;28;20205;-55
2022/01/29 08:37:14;;;;;;;9.27;5.80;;;7.00;99.90;;;;;;5053961;28;20288;-55
2022/01/29 08:39:41;;;;;;;8.97;5.63;;;7.10;99.90;;;;;;5053995;28;20214;-55
2022/01/29 08:42:08;;;;;;;8.57;5.60;;;7.20;99.90;;;;;;5053657;28;20230;-55
2022/01/29 08:44:35;;;;;;;11.93;7.90;;;7.30;99.90;;;;;;5054002;28;20580;-55
2022/01/29 08:47:03;;;;;;;8.13;5.60;;;7.40;99.90;;;;;;5053478;28;20205;-55
2022/01/29 08:49:29;;;;;;;7.53;5.00;;;7.40;99.90;;;;;;5054019;28;20583;-54
2022/01/29 08:51:56;;;;;;;7.70;5.40;;;7.40;99.90;;;;;;5053760;28;20229;-55
2022/01/29 08:54:24;;;;;;;5.60;4.40;;;7.50;99.90;;;;;;5053583;28;20206;-55
2022/01/29 08:56:51;;;;;;;5.93;4.07;;;7.60;99.90;;;;;;5053738;28;20220;-55
2022/01/29 08:59:17;;;;;;;6.30;3.60;;;7.60;99.90;;;;;;5053608;28;20279;-55
2022/01/29 09:01:44;;;;;;;4.63;3.63;;;7.60;99.90;;;;;;5053690;28;20311;-56
2022/01/29 09:04:11;;;;;;;4.80;3.47;;;7.60;99.90;;;;;;5053279;28;20209;-55
2022/01/29 09:06:37;;;;;;;4.80;3.57;;;7.70;99.90;;;;;;5053674;28;20205;-54
2022/01/29 09:09:04;;;;;;;3.97;3.10;;;7.70;99.90;;;;;;5053334;28;20214;-56
2022/01/29 09:11:33;;;;;;;8.20;4.77;;;7.80;99.90;;;;;;5053376;28;20292;-54
2022/01/29 09:14:00;;;;;;;6.33;3.77;;;7.90;99.90;;;;;;5052819;28;20206;-55
2022/01/29 09:16:27;;;;;;;5.17;3.57;;;8.00;99.90;;;;;;5053220;28;20206;-55
2022/01/29 09:18:53;;;;;;;6.07;3.27;;;8.20;99.90;;;;;;5052917;28;20578;-55
2022/01/29 09:21:20;;;;;;;5.93;3.73;;;8.30;99.90;;;;;;5052984;28;20230;-54
2022/01/29 09:23:47;;;;;;;4.60;2.60;;;8.40;99.90;;;;;;5052159;28;20210;-56
2022/01/29 09:26:13;;;;;;;5.10;2.60;;;8.50;99.90;;;;;;5052877;28;20210;-56
2022/01/29 09:28:41;;;;;;;5.03;2.90;;;8.50;99.90;;;;;;5052600;28;20216;-55
2022/01/29 09:31:08;;;;;;;5.17;2.80;;;8.60;99.90;;;;;;5052638;28;20713;-55
2022/01/29 09:33:35;;;;;;;4.73;2.50;;;8.80;99.90;;;;;;5052652;28;20227;-56
2022/01/29 09:36:01;;;;;;;4.43;3.10;;;8.80;99.90;;;;;;5052854;28;20205;-55
2022/01/29 09:38:28;;;;;;;3.93;2.90;;;8.90;99.90;;;;;;5052855;28;20209;-55
2022/01/29 09:40:55;;;;;;;6.33;2.83;;;9.10;99.90;;;;;;5052506;28;20759;-55
2022/01/29 09:43:25;;;;;;;5.73;2.63;;;9.20;99.90;;;;;;5052430;28;20278;-56
2022/01/29 09:45:54;;;;;;;5.77;3.93;;;9.30;99.90;;;;;;5052549;28;20737;-56
2022/01/29 09:48:23;;;;;;;3.70;2.60;;;9.40;99.90;;;;;;5052472;28;20693;-55
2022/01/29 09:50:52;;;;;;;5.57;3.00;;;9.50;99.90;;;;;;5052475;28;20222;-55
2022/01/29 09:53:19;;;;;;;3.43;2.50;;;9.60;99.90;;;;;;5051987;28;20705;-55
2022/01/29 09:55:47;;;;;;;7.30;2.40;;;9.80;99.90;;;;;;5052242;28;20697;-55
2022/01/29 09:58:13;;;;;;;5.50;3.03;;;9.90;99.90;;;;;;5052826;28;20213;-56
2022/01/29 10:00:40;;;;;;;4.93;2.80;;;9.90;99.90;;;;;;5052395;28;20225;-55
2022/01/29 10:03:19;;;;;;;4.90;3.07;;;9.90;99.90;;;;;;5052270;28;20563;-56
2022/01/29 10:05:48;;;;;;;4.50;3.17;;;9.90;99.90;;;;;;5052224;28;20217;-54
2022/01/29 10:08:15;;;;;;;3.87;2.60;;;10.00;99.90;;;;;;5052078;28;20232;-55
2022/01/29 10:10:43;;;;;;;4.87;2.90;;;10.00;99.90;;;;;;5052127;28;20237;-54
2022/01/29 10:13:30;;;;;;;6.07;3.50;;;10.10;99.90;;;;;;5051719;28;20214;-55
2022/01/29 10:16:12;;;;;;;6.17;3.20;;;10.00;99.90;;;;;;5051970;28;20212;-54
2022/01/29 10:18:40;;;;;;;4.33;2.60;;;9.90;99.90;;;;;;5051923;28;20210;-56
2022/01/29 10:21:10;;;;;;;3.50;3.03;;;9.90;99.90;;;;;;5051939;28;20312;-56
2022/01/29 10:23:37;;;;;;;6.00;3.23;;;9.90;99.90;;;;;;5051643;28;20697;-56
2022/01/29 10:26:04;;;;;;;6.20;3.20;;;9.90;99.90;;;;;;5051897;28;20212;-56
2022/01/29 10:28:32;;;;;;;4.97;3.13;;;10.00;99.90;;;;;;5051964;28;20209;-56
2022/01/29 10:31:04;;;;;;;5.30;3.73;;;10.00;99.90;;;;;;5051625;28;20232;-57
2022/01/29 10:33:32;;;;;;;7.30;3.43;;;10.10;99.90;;;;;;5051186;28;20218;-54
2022/01/29 10:36:01;;;;;;;5.23;3.30;;;10.10;99.90;;;;;;5052168;28;20205;-54
2022/01/29 10:38:45;;;;;;;8.33;4.60;;;10.00;99.90;;;;;;5052651;28;20201;-56
2022/01/29 10:41:19;;;;;;;6.47;3.57;;;10.00;99.90;;;;;;5052379;28;20229;-59
2022/01/29 10:44:10;;;;;;;7.00;3.23;;;10.10;99.90;;;;;;5051430;28;20216;-56
2022/01/29 10:46:39;;;;;;;6.83;3.50;;;10.30;99.90;;;;;;5052227;28;20210;-56
2022/01/29 10:49:06;;;;;;;7.23;3.80;;;10.50;99.90;;;;;;5052062;28;20201;-56
2022/01/29 10:51:36;;;;;;;7.37;3.70;;;10.60;99.90;;;;;;5051644;28;20245;-56
2022/01/29 10:54:21;;;;;;;3.43;2.93;;;10.70;99.90;;;;;;5051561;28;20551;-55
2022/01/29 10:56:52;;;;;;;7.50;5.20;;;10.80;99.90;;;;;;5051727;28;20209;-56
2022/01/29 10:59:20;;;;;;;7.10;4.10;;;10.90;99.90;;;;;;5051717;28;20758;-55
2022/01/29 11:01:51;;;;;;;4.17;3.00;;;11.00;99.90;;;;;;5051321;28;20705;-55
2022/01/29 11:04:17;;;;;;;5.73;3.10;;;11.10;99.90;;;;;;5051205;28;20202;-56
2022/01/29 11:06:47;;;;;;;3.40;2.63;;;11.20;99.90;;;;;;5051840;28;20209;-56
2022/01/29 11:09:14;;;;;;;5.20;2.40;;;11.10;99.90;;;;;;5052150;28;20566;-55
2022/01/29 11:11:42;;;;;;;3.90;2.77;;;10.90;99.90;;;;;;5073915;22;20233;-59
2022/01/29 11:14:10;;;;;;;3.03;2.40;;;10.70;99.90;;;;;;5043894;28;20591;-59
2022/01/29 11:16:38;;;;;;;3.80;2.33;;;10.60;99.90;;;;;;5051605;28;20814;-59
2022/01/29 11:19:06;;;;;;;2.70;2.10;;;10.50;99.90;;;;;;5051289;28;20213;-59
2022/01/29 11:21:33;;;;;;;2.77;2.20;;;10.40;99.90;;;;;;5051567;28;20232;-59
2022/01/29 11:24:02;;;;;;;3.17;2.40;;;10.30;99.90;;;;;;5051289;28;20293;-59
2022/01/29 11:26:30;;;;;;;3.53;2.70;;;10.30;99.90;;;;;;5051618;28;20206;-60
2022/01/29 11:29:25;;;;;;;4.73;2.50;;;10.40;99.90;;;;;;5051284;28;20595;-60
2022/01/29 11:32:25;;;;;;;4.13;2.60;;;10.50;99.90;;;;;;5051163;28;20570;-61
2022/01/29 11:35:05;;;;;;;3.90;2.40;;;10.50;99.90;;;;;;5051234;28;20217;-60
2022/01/29 11:37:57;;;;;;;4.47;2.60;;;10.50;99.90;;;;;;5051559;28;20221;-60
2022/01/29 11:40:29;;;;;;;3.73;2.70;;;10.60;99.90;;;;;;5021319;28;20221;-60
2022/01/29 11:43:18;;;;;;;4.00;2.83;;;10.60;99.90;;;;;;5051392;28;20233;-59
2022/01/29 11:45:49;;;;;;;3.23;2.67;;;10.60;99.90;;;;;;5052547;28;20216;-60
2022/01/29 11:51:53;;;;;;;8.83;4.87;;;10.60;99.90;;;;;;5039106;28;20217;-61
2022/01/29 11:54:25;;;;;;;3.27;2.40;;;10.70;99.90;;;;;;5054486;28;20220;-61
2022/01/29 11:57:15;;;;;;;2.90;2.13;;;10.70;99.90;;;;;;5054957;28;20209;-61
2022/01/29 11:59:42;;;;;;;2.43;1.90;;;10.70;99.90;;;;;;5054826;28;20292;-61
2022/01/29 12:02:39;;;;;;;4.30;2.43;;;10.60;99.90;;;;;;5055100;28;20235;-61
2022/01/29 12:05:07;;;;;;;2.43;1.83;;;10.60;99.90;;;;;;5054381;28;20212;-60
2022/01/29 12:07:38;;;;;;;3.70;2.50;;;10.60;99.90;;;;;;5054659;28;20247;-61
2022/01/29 12:10:09;;;;;;;2.90;2.30;;;10.50;99.90;;;;;;5054777;28;20217;-61
2022/01/29 12:12:38;;;;;;;5.83;2.30;;;10.50;99.90;;;;;;5054053;28;20269;-60
2022/01/29 12:15:45;;;;;;;4.40;2.30;;;10.50;99.90;;;;;;5054400;28;20576;-60
2022/01/29 12:18:35;;;;;;;4.30;2.20;;;10.40;99.90;;;;;;5047518;28;20201;-61
2022/01/29 12:21:03;;;;;;;2.47;2.13;;;10.50;99.90;;;;;;5054491;28;20268;-60
2022/01/29 12:23:30;;;;;;;3.97;2.13;;;10.50;99.90;;;;;;5053791;28;20229;-60
2022/01/29 12:25:59;;;;;;;3.17;2.10;;;10.60;99.90;;;;;;5053968;28;21200;-60
2022/01/29 12:28:27;;;;;;;3.60;2.10;;;10.50;99.90;;;;;;5053926;28;20209;-60
2022/01/29 12:30:54;;;;;;;5.17;2.93;;;10.50;99.90;;;;;;5053764;28;20221;-60
2022/01/29 12:33:24;;;;;;;1.70;1.57;;;10.60;99.90;;;;;;5053598;28;20570;-60
2022/01/29 12:35:54;;;;;;;3.07;2.00;;;10.60;99.90;;;;;;5053951;28;20300;-60
2022/01/29 12:38:26;;;;;;;6.30;3.93;;;10.60;99.90;;;;;;5054073;28;20217;-60
2022/01/29 12:40:55;;;;;;;3.63;1.93;;;10.60;99.90;;;;;;5053714;28;20226;-60
2022/01/29 12:43:30;;;;;;;2.30;1.63;;;10.50;99.90;;;;;;5053376;28;20222;-60
2022/01/29 12:46:08;;;;;;;3.80;2.10;;;10.60;99.90;;;;;;5053765;28;20262;-61
2022/01/29 12:48:35;;;;;;;3.33;2.70;;;10.60;99.90;;;;;;5054411;28;20296;-61
2022/01/29 12:51:05;;;;;;;3.87;2.20;;;10.70;99.90;;;;;;5053734;28;20230;-62
2022/01/29 12:53:32;;;;;;;2.77;2.10;;;10.80;99.90;;;;;;5053396;28;20201;-61
2022/01/29 12:56:00;;;;;;;5.30;3.10;;;10.90;99.90;;;;;;5053836;28;20700;-61
2022/01/29 12:58:30;;;;;;;4.90;2.50;;;11.00;99.90;;;;;;5052559;28;20288;-61
2022/01/29 13:01:03;;;;;;;2.57;1.90;;;11.10;99.90;;;;;;5053486;28;20232;-62
2022/01/29 13:03:29;;;;;;;3.33;1.63;;;11.20;99.90;;;;;;5053105;28;20244;-61
2022/01/29 13:06:04;;;;;;;2.60;1.80;;;11.40;99.90;;;;;;5053607;28;20263;-59
2022/01/29 13:08:31;;;;;;;3.20;1.60;;;11.40;99.90;;;;;;5053889;28;20251;-59
2022/01/29 13:10:58;;;;;;;6.40;1.70;;;11.60;99.90;;;;;;5053487;28;20233;-59